createdAt,value
2023-03-22T00:02:08.095Z,8.80
2023-03-22T00:04:34.766Z,8.90
2023-03-22T00:07:01.422Z,8.90
2023-03-22T00:09:28.109Z,8.90
2023-03-22T00:11:54.858Z,8.90
2023-03-22T00:14:21.628Z,8.90
2023-03-22T00:16:49.187Z,8.90
2023-03-22T00:19:17.409Z,8.90
2023-03-22T00:21:44.368Z,8.90
2023-03-22T00:24:11.052Z,8.90
2023-03-22T00:26:37.844Z,8.90
2023-03-22T00:29:04.643Z,8.90
2023-03-22T00:31:31.386Z,8.90
2023-03-22T00:33:58.097Z,8.90
2023-03-22T00:36:24.858Z,9.00
2023-03-22T00:38:51.847Z,9.00
2023-03-22T00:41:21.415Z,9.00
2023-03-22T00:43:49.601Z,9.00
2023-03-22T00:46:17.694Z,9.10
2023-03-22T00:48:44.494Z,9.10
2023-03-22T00:51:12.045Z,9.10
2023-03-22T00:53:41.998Z,9.20
2023-03-22T00:56:10.676Z,9.20
2023-03-22T00:58:37.326Z,9.20
2023-03-22T01:01:04.113Z,9.20
2023-03-22T01:03:30.863Z,9.20
2023-03-22T01:05:57.815Z,9.30
2023-03-22T01:08:24.721Z,9.30
2023-03-22T01:10:51.640Z,9.30
2023-03-22T01:13:18.510Z,9.40
2023-03-22T01:15:47.653Z,9.40
2023-03-22T01:18:14.358Z,9.40
2023-03-22T01:20:41.277Z,9.50
2023-03-22T01:23:08.144Z,9.50
2023-03-22T01:25:34.961Z,9.50
2023-03-22T01:28:02.687Z,9.50
2023-03-22T01:30:30.239Z,9.50
2023-03-22T01:32:56.992Z,9.50
2023-03-22T01:35:23.912Z,9.50
2023-03-22T01:37:50.639Z,9.50
2023-03-22T01:40:17.630Z,9.50
2023-03-22T01:42:44.257Z,9.50
2023-03-22T01:45:13.868Z,9.50
2023-03-22T01:48:02.362Z,9.50
2023-03-22T01:50:30.134Z,9.50
2023-03-22T01:52:57.745Z,9.60
2023-03-22T01:55:26.079Z,9.60
2023-03-22T01:57:54.101Z,9.60
2023-03-22T02:00:21.129Z,9.60
2023-03-22T02:02:51.312Z,9.60
2023-03-22T02:05:19.082Z,9.60
2023-03-22T02:07:46.318Z,9.60
2023-03-22T02:10:22.906Z,9.60
2023-03-22T02:13:12.605Z,9.50
2023-03-22T02:16:03.045Z,9.50
2023-03-22T02:18:54.949Z,9.50
2023-03-22T02:21:30.133Z,9.40
2023-03-22T02:24:26.053Z,9.40
2023-03-22T02:27:11.243Z,9.40
2023-03-22T02:30:04.028Z,9.30
2023-03-22T02:32:56.878Z,9.30
2023-03-22T02:35:55.903Z,9.20
2023-03-22T02:38:42.415Z,9.10
2023-03-22T02:41:54.140Z,9.00
2023-03-22T02:44:42.482Z,8.90
2023-03-22T02:47:21.627Z,8.80
2023-03-22T02:50:20.320Z,8.70
2023-03-22T02:53:23.742Z,8.60
2023-03-22T02:56:02.248Z,8.60
2023-03-22T02:58:40.015Z,8.60
2023-03-22T03:01:12.661Z,8.60
2023-03-22T03:03:39.937Z,8.50
2023-03-22T03:06:16.605Z,8.50
2023-03-22T03:08:46.754Z,8.50
2023-03-22T03:11:13.492Z,8.40
2023-03-22T03:13:40.287Z,8.40
2023-03-22T03:16:10.806Z,8.40
2023-03-22T03:19:02.367Z,8.40
2023-03-22T03:21:42.479Z,8.40
2023-03-22T03:24:27.187Z,8.40
2023-03-22T03:27:02.404Z,8.40
2023-03-22T03:30:02.796Z,8.40
2023-03-22T03:32:37.803Z,8.40
2023-03-22T03:35:26.634Z,8.40
2023-03-22T03:38:22.420Z,8.40
2023-03-22T03:40:54.260Z,8.30
2023-03-22T03:43:21.756Z,8.30
2023-03-22T03:45:48.669Z,8.30
2023-03-22T03:48:19.868Z,8.30
2023-03-22T03:50:50.279Z,8.40
2023-03-22T03:53:17.040Z,8.40
2023-03-22T03:55:44.182Z,8.40
2023-03-22T03:58:10.950Z,8.40
2023-03-22T04:00:38.387Z,8.50
2023-03-22T04:03:06.299Z,8.40
2023-03-22T04:05:33.160Z,8.40
2023-03-22T04:08:00.146Z,8.50
2023-03-22T04:10:26.769Z,8.50
2023-03-22T04:12:53.419Z,8.50
2023-03-22T04:15:20.102Z,8.50
2023-03-22T04:17:46.696Z,8.40
2023-03-22T04:20:13.794Z,8.50
2023-03-22T04:22:41.425Z,8.40
2023-03-22T04:25:13.311Z,8.40
2023-03-22T04:27:41.726Z,8.40
2023-03-22T04:30:11.207Z,8.50
2023-03-22T04:32:38.628Z,8.40
2023-03-22T04:35:05.550Z,8.40
2023-03-22T04:37:32.198Z,8.40
2023-03-22T04:39:59.086Z,8.50
2023-03-22T04:42:25.977Z,8.50
2023-03-22T04:44:52.665Z,8.50
2023-03-22T04:47:19.351Z,8.50
2023-03-22T04:49:46.135Z,8.50
2023-03-22T04:52:12.780Z,8.50
2023-03-22T04:54:39.491Z,8.50
2023-03-22T04:57:06.991Z,8.50
2023-03-22T04:59:33.829Z,8.50
2023-03-22T05:02:00.991Z,8.50
2023-03-22T05:04:28.014Z,8.50
2023-03-22T05:06:54.618Z,8.40
2023-03-22T05:09:23.449Z,8.30
2023-03-22T05:11:50.480Z,8.30
2023-03-22T05:14:17.179Z,8.20
2023-03-22T05:16:43.922Z,8.10
2023-03-22T05:19:16.300Z,8.00
2023-03-22T05:21:44.139Z,8.00
2023-03-22T05:24:11.357Z,7.90
2023-03-22T05:26:42.176Z,7.80
2023-03-22T05:29:10.936Z,7.80
2023-03-22T05:31:37.817Z,7.70
2023-03-22T05:34:04.845Z,7.70
2023-03-22T05:36:31.576Z,7.60
2023-03-22T05:38:58.231Z,7.50
2023-03-22T05:41:24.992Z,7.50
2023-03-22T05:43:51.644Z,7.40
2023-03-22T05:46:18.341Z,7.40
2023-03-22T05:48:45.024Z,7.30
2023-03-22T05:51:17.386Z,7.40
2023-03-22T05:53:45.891Z,7.40
2023-03-22T05:56:13.253Z,7.40
2023-03-22T05:58:41.166Z,7.40
2023-03-22T06:01:10.970Z,7.40
2023-03-22T06:03:38.935Z,7.50
2023-03-22T06:06:10.428Z,7.50
2023-03-22T06:08:38.453Z,7.60
2023-03-22T06:11:06.171Z,7.70
2023-03-22T06:13:33.401Z,8.00
2023-03-22T06:16:02.173Z,8.10
2023-03-22T06:18:30.282Z,8.20
2023-03-22T06:20:57.261Z,8.40
2023-03-22T06:23:23.989Z,8.60
2023-03-22T06:25:50.732Z,9.00
2023-03-22T06:28:17.575Z,9.40
2023-03-22T06:30:44.337Z,9.60
2023-03-22T06:33:11.111Z,10.50
2023-03-22T06:35:37.939Z,11.00
2023-03-22T06:38:04.696Z,11.30
2023-03-22T06:40:31.338Z,11.60
2023-03-22T06:42:57.983Z,11.80
2023-03-22T06:45:24.631Z,12.00
2023-03-22T06:47:51.428Z,11.90
2023-03-22T06:50:18.258Z,11.80
2023-03-22T06:52:45.030Z,11.50
2023-03-22T06:55:11.672Z,11.10
2023-03-22T06:57:38.376Z,10.80
2023-03-22T07:00:05.877Z,10.70
2023-03-22T07:02:32.571Z,10.70
2023-03-22T07:04:59.188Z,10.70
2023-03-22T07:07:25.872Z,10.70
2023-03-22T07:09:53.294Z,10.70
2023-03-22T07:12:19.920Z,10.80
2023-03-22T07:14:47.339Z,10.90
2023-03-22T07:17:14.221Z,11.10
2023-03-22T07:19:42.638Z,11.30
2023-03-22T07:22:09.391Z,11.60
2023-03-22T07:24:38.685Z,11.80
2023-03-22T07:27:11.400Z,11.90
2023-03-22T07:29:38.029Z,11.70
2023-03-22T07:32:04.976Z,11.60
2023-03-22T07:34:31.657Z,11.50
2023-03-22T07:36:58.423Z,11.60
2023-03-22T07:39:25.546Z,11.70
2023-03-22T07:41:52.697Z,11.90
2023-03-22T07:44:19.346Z,12.20
2023-03-22T07:46:46.108Z,12.30
2023-03-22T07:49:13.032Z,12.60
2023-03-22T07:51:39.669Z,12.90
2023-03-22T07:54:07.831Z,13.20
2023-03-22T07:56:34.760Z,13.20
2023-03-22T07:59:01.470Z,12.90
2023-03-22T08:01:28.132Z,13.40
2023-03-22T08:03:54.736Z,13.70
2023-03-22T08:06:21.604Z,13.80
2023-03-22T08:08:48.491Z,14.00
2023-03-22T08:11:15.617Z,14.30
2023-03-22T08:13:42.258Z,14.30
2023-03-22T08:16:09.003Z,14.50
2023-03-22T08:18:36.108Z,14.90
2023-03-22T08:21:02.809Z,15.30
2023-03-22T08:23:40.914Z,15.70
2023-03-22T08:26:08.825Z,16.50
2023-03-22T08:28:35.544Z,15.30
2023-03-22T08:31:02.168Z,15.00
2023-03-22T08:33:28.832Z,14.70
2023-03-22T08:36:06.570Z,14.40
2023-03-22T08:38:33.279Z,14.10
2023-03-22T08:40:59.887Z,13.90
2023-03-22T08:43:26.680Z,13.80
2023-03-22T08:45:53.338Z,13.70
2023-03-22T08:48:20.276Z,13.90
2023-03-22T08:50:46.930Z,14.00
2023-03-22T08:53:13.906Z,14.00
2023-03-22T08:55:44.716Z,14.10
2023-03-22T08:58:13.134Z,14.10
2023-03-22T09:00:48.623Z,14.20
2023-03-22T09:03:16.186Z,14.20
2023-03-22T09:05:42.865Z,14.40
2023-03-22T09:08:18.252Z,14.80
2023-03-22T09:10:52.705Z,15.20
2023-03-22T09:13:20.658Z,15.30
2023-03-22T09:15:47.682Z,15.20
2023-03-22T09:18:15.243Z,14.40
2023-03-22T09:20:42.840Z,14.90
2023-03-22T09:23:09.704Z,14.90
2023-03-22T09:25:36.599Z,14.90
2023-03-22T09:28:04.173Z,15.10
2023-03-22T09:30:30.920Z,15.20
2023-03-22T09:32:57.624Z,15.20
2023-03-22T09:35:24.416Z,15.30
2023-03-22T09:37:53.392Z,15.40
2023-03-22T09:40:21.750Z,15.50
2023-03-22T09:42:51.305Z,15.80
2023-03-22T09:45:32.890Z,15.90
2023-03-22T09:48:00.450Z,16.10
2023-03-22T09:50:31.412Z,15.80
2023-03-22T09:52:59.569Z,15.80
2023-03-22T09:55:56.547Z,15.80
2023-03-22T09:58:43.003Z,16.00
2023-03-22T10:01:24.656Z,15.70
2023-03-22T10:04:15.523Z,15.60
2023-03-22T10:06:47.442Z,15.90
2023-03-22T10:09:35.104Z,16.80
2023-03-22T10:12:25.342Z,18.10
2023-03-22T10:15:03.839Z,18.50
2023-03-22T10:17:31.412Z,17.60
2023-03-22T10:20:19.677Z,17.30
2023-03-22T10:22:47.577Z,17.60
2023-03-22T10:25:21.474Z,18.60
2023-03-22T10:27:52.386Z,20.00
2023-03-22T10:30:41.504Z,21.30
2023-03-22T10:33:21.414Z,22.00
2023-03-22T10:35:49.393Z,21.00
2023-03-22T10:38:22.719Z,20.70
2023-03-22T10:40:50.442Z,20.40
2023-03-22T10:43:36.727Z,19.80
2023-03-22T10:46:07.592Z,19.20
2023-03-22T10:48:39.116Z,19.90
2023-03-22T10:51:07.022Z,20.10
2023-03-22T10:53:47.932Z,20.70
2023-03-22T10:56:18.762Z,20.30
2023-03-22T10:58:46.046Z,19.80
2023-03-22T11:01:25.480Z,19.80
2023-03-22T11:04:05.850Z,20.00
2023-03-22T11:06:35.176Z,18.50
2023-03-22T11:09:15.678Z,19.70
2023-03-22T11:11:50.450Z,19.60
2023-03-22T11:14:39.536Z,19.60
2023-03-22T11:17:06.166Z,19.50
2023-03-22T11:19:58.132Z,18.90
2023-03-22T11:22:26.462Z,18.70
2023-03-22T11:24:55.779Z,19.00
2023-03-22T11:27:28.563Z,19.40
2023-03-22T11:30:19.935Z,19.90
2023-03-22T11:32:46.680Z,20.20
2023-03-22T11:35:23.091Z,20.10
2023-03-22T11:37:53.014Z,20.30
2023-03-22T11:40:26.181Z,20.70
2023-03-22T11:42:55.638Z,21.10
2023-03-22T11:45:30.282Z,21.30
2023-03-22T11:48:14.667Z,21.40
2023-03-22T11:50:46.289Z,21.70
2023-03-22T11:53:17.535Z,22.00
2023-03-22T11:55:45.254Z,22.40
2023-03-22T11:58:47.514Z,22.50
2023-03-22T12:01:22.909Z,22.70
2023-03-22T12:03:55.799Z,23.00
2023-03-22T12:06:26.974Z,23.20
2023-03-22T12:09:00.336Z,23.30
2023-03-22T12:11:41.328Z,22.60
2023-03-22T12:14:29.622Z,23.00
2023-03-22T12:17:26.691Z,22.90
2023-03-22T12:19:53.357Z,22.50
2023-03-22T12:22:26.155Z,22.50
2023-03-22T12:24:52.961Z,22.50
2023-03-22T12:27:37.344Z,22.50
2023-03-22T12:30:19.727Z,22.60
2023-03-22T12:33:29.767Z,22.70
2023-03-22T12:36:00.623Z,22.60
2023-03-22T12:38:41.884Z,22.10
2023-03-22T12:41:14.924Z,22.10
2023-03-22T12:44:18.067Z,21.90
2023-03-22T12:46:58.623Z,21.80
2023-03-22T12:49:31.409Z,22.00
2023-03-22T12:52:12.044Z,21.90
2023-03-22T12:54:39.252Z,21.60
2023-03-22T12:57:06.786Z,21.50
2023-03-22T12:59:33.556Z,21.60
2023-03-22T13:02:17.168Z,21.80
2023-03-22T13:04:43.766Z,22.00
2023-03-22T13:07:38.259Z,22.10
2023-03-22T13:10:31.791Z,22.30
2023-03-22T13:13:12.853Z,22.70
2023-03-22T13:15:55.909Z,22.90
2023-03-22T13:18:38.114Z,22.90
2023-03-22T13:21:22.429Z,22.80
2023-03-22T13:23:56.962Z,22.90
2023-03-22T13:26:32.940Z,22.90
2023-03-22T13:29:02.034Z,23.00
2023-03-22T13:31:36.204Z,22.90
2023-03-22T13:34:04.635Z,23.00
2023-03-22T13:36:32.068Z,23.10
2023-03-22T13:39:04.877Z,22.90
2023-03-22T13:41:33.869Z,22.70
2023-03-22T13:44:24.383Z,22.60
2023-03-22T13:46:52.418Z,22.10
2023-03-22T13:49:31.258Z,21.80
2023-03-22T13:52:01.246Z,21.50
2023-03-22T13:54:44.059Z,21.00
2023-03-22T13:57:41.030Z,20.70
2023-03-22T14:00:30.203Z,20.50
2023-03-22T14:03:03.549Z,20.50
2023-03-22T14:05:35.088Z,20.30
2023-03-22T14:08:02.898Z,20.00
2023-03-22T14:10:44.363Z,19.90
2023-03-22T14:13:30.725Z,19.70
2023-03-22T14:16:04.341Z,19.60
2023-03-22T14:18:34.147Z,19.80
2023-03-22T14:21:06.050Z,19.90
